Cruise inventory

Unknown unknown Kingfisher 20101207

Cruise plan

Cruise Info. 
Ship name (ship code)Unknown unknown (ZZ99)
Cruise identifierKingfisher 20101207
Cruise period2010-12-07 — 2010-12-21
StatusCompleted
Port of departureSoyo Oil Terminal, Angola
Port of returnSoyo Oil Terminal, Angola
PurposeResearch
ObjectivesLong-term measurement programme Angola LNG Navigation Channel.
Ship used was Kingfisher, a 28-foot survey vessel owned by Angola LNG.
Chief scientistPaul Trapier Puckette (Evans-Hamilton, Inc)
Ocean/sea areas 
GeneralSouth East Atlantic Ocean (limit 20W)
SpecificCongo Channel
Data held at BODC 
Series/Profiles 
50  CTD/STD cast
Electrical conductivity of the water column
Vertical spatial coordinates
Concentration of suspended particulate material in the water column
Salinity of the water column
Temperature of the water column
Reference numbers
Date and time
Electrical conductivity of the water column
Vertical spatial coordinates
Concentration of suspended particulate material in the water column
Salinity of the water column
Temperature of the water column
Reference numbers
Date and time

BODC idDate/TimeLocationDoc.
17386422010-12-07 06:48:03  — 2010-12-07 06:53:46 6° 5' 35" S  12° 19' 59" E  View metadata report for BODC series reference number 1738642
17386542010-12-07 07:26:31  — 2010-12-07 07:31 6° 5' 35" S  12° 19' 59" E  View metadata report for BODC series reference number 1738654
17386662010-12-07 08:31:09  — 2010-12-07 08:35:38 6° 5' 35" S  12° 19' 59" E  View metadata report for BODC series reference number 1738666
17386782010-12-07 09:03:44  — 2010-12-07 09:10:40 6° 5' 35" S  12° 19' 59" E  View metadata report for BODC series reference number 1738678
17386912010-12-07 10:20:02  — 2010-12-07 10:25:01 6° 5' 35" S  12° 19' 59" E  View metadata report for BODC series reference number 1738691
17387092010-12-07 10:50:34  — 2010-12-07 10:59:57 6° 5' 35" S  12° 19' 59" E  View metadata report for BODC series reference number 1738709
17387102010-12-07 11:49:53  — 2010-12-07 11:54:53 6° 5' 35" S  12° 19' 59" E  View metadata report for BODC series reference number 1738710
17387222010-12-07 12:20:02  — 2010-12-07 12:27:52 6° 5' 35" S  12° 19' 59" E  View metadata report for BODC series reference number 1738722
17411402010-12-10 14:49:59  — 2010-12-10 14:52:14 6° 5' 35" S  12° 19' 59" E  View metadata report for BODC series reference number 1741140
17411522010-12-10 15:29:03  — 2010-12-10 15:31:31 6° 4' 12" S  12° 20' 29" E  View metadata report for BODC series reference number 1741152
17411642010-12-11 11:03  — 2010-12-11 11:05:40 6° 5' 35" S  12° 19' 59" E  View metadata report for BODC series reference number 1741164
17411762010-12-11 12:13:32  — 2010-12-11 12:15:38 6° 4' 12" S  12° 20' 29" E  View metadata report for BODC series reference number 1741176
17411882010-12-11 13:14:48  — 2010-12-11 13:17:37 6° 5' 35" S  12° 19' 59" E  View metadata report for BODC series reference number 1741188
17412072010-12-11 13:47:56  — 2010-12-11 13:50:40 6° 4' 12" S  12° 20' 29" E  View metadata report for BODC series reference number 1741207
17412192010-12-11 14:52:35  — 2010-12-11 14:54:33 6° 5' 35" S  12° 19' 59" E  View metadata report for BODC series reference number 1741219
17412202010-12-11 15:24:50  — 2010-12-11 15:27:56 6° 4' 12" S  12° 20' 29" E  View metadata report for BODC series reference number 1741220
17412322010-12-11 16:27:52  — 2010-12-11 16:30:30 6° 3' 47" S  12° 20' 37" E  View metadata report for BODC series reference number 1741232
17412442010-12-12 08:59:01  — 2010-12-12 09:01:38 6° 5' 2" S  12° 20' 11" E  View metadata report for BODC series reference number 1741244
17412562010-12-12 09:24:13  — 2010-12-12 09:26:09 6° 3' 47" S  12° 20' 37" E  View metadata report for BODC series reference number 1741256
17412682010-12-12 10:06:33  — 2010-12-12 10:09:22 6° 5' 2" S  12° 20' 11" E  View metadata report for BODC series reference number 1741268
17412812010-12-12 10:32:40  — 2010-12-12 10:35:45 6° 3' 47" S  12° 20' 37" E  View metadata report for BODC series reference number 1741281
17412932010-12-12 11:17:31  — 2010-12-12 11:20:42 6° 5' 2" S  12° 20' 11" E  View metadata report for BODC series reference number 1741293
17413002010-12-12 11:44:27  — 2010-12-12 11:47:01 6° 3' 47" S  12° 20' 37" E  View metadata report for BODC series reference number 1741300
17413122010-12-12 12:31:04  — 2010-12-12 12:33:16 6° 5' 2" S  12° 20' 11" E  View metadata report for BODC series reference number 1741312
17413242010-12-12 13:00:55  — 2010-12-12 13:02:55 6° 3' 47" S  12° 20' 37" E  View metadata report for BODC series reference number 1741324
17413362010-12-12 13:45:09  — 2010-12-12 13:47:06 6° 5' 35" S  12° 19' 59" E  View metadata report for BODC series reference number 1741336
17413482010-12-12 14:10:10  — 2010-12-12 14:12:04 6° 4' 12" S  12° 20' 29" E  View metadata report for BODC series reference number 1741348
17413612010-12-12 14:52:03  — 2010-12-12 14:54:19 6° 5' 35" S  12° 19' 59" E  View metadata report for BODC series reference number 1741361
17413732010-12-12 15:23:25  — 2010-12-12 15:25:42 6° 5' 35" S  12° 19' 59" E  View metadata report for BODC series reference number 1741373
17413852010-12-12 15:59:50  — 2010-12-12 16:02:27 6° 4' 12" S  12° 20' 29" E  View metadata report for BODC series reference number 1741385
17413972010-12-13 09:58:04  — 2010-12-13 10:01:12 6° 5' 35" S  12° 19' 59" E  View metadata report for BODC series reference number 1741397
17414042010-12-13 10:39:51  — 2010-12-13 10:42:09 6° 4' 12" S  12° 20' 29" E  View metadata report for BODC series reference number 1741404
17414162010-12-13 11:37:25  — 2010-12-13 11:39:30 6° 5' 35" S  12° 19' 59" E  View metadata report for BODC series reference number 1741416
17414282010-12-13 12:01:46  — 2010-12-13 12:04:34 6° 5' 35" S  12° 19' 59" E  View metadata report for BODC series reference number 1741428
17414412010-12-13 12:40:44  — 2010-12-13 12:43:21 6° 7' 39" S  12° 19' 9" E  View metadata report for BODC series reference number 1741441
17414892010-12-13 15:31:04  — 2010-12-13 15:33:08 6° 7' 39" S  12° 19' 9" E  View metadata report for BODC series reference number 1741489
17414902010-12-13 16:08:54  — 2010-12-13 16:11:10 6° 6' 42" S  12° 20' 2" E  View metadata report for BODC series reference number 1741490
17415082010-12-14 10:43:25  — 2010-12-14 10:45:10 6° 7' 39" S  12° 19' 9" E  View metadata report for BODC series reference number 1741508
17415212010-12-14 11:14:56  — 2010-12-14 11:16:54 6° 6' 42" S  12° 20' 2" E  View metadata report for BODC series reference number 1741521
17415332010-12-14 12:04:23  — 2010-12-14 12:06:26 6° 7' 39" S  12° 19' 9" E  View metadata report for BODC series reference number 1741533
17415452010-12-14 12:27:05  — 2010-12-14 12:29:11 6° 6' 42" S  12° 20' 2" E  View metadata report for BODC series reference number 1741545
17415572010-12-14 12:27:05  — 2010-12-14 12:29:12 6° 7' 39" S  12° 19' 9" E  View metadata report for BODC series reference number 1741557
17415692010-12-14 13:33:53  — 2010-12-14 13:35:47 6° 7' 39" S  12° 19' 9" E  View metadata report for BODC series reference number 1741569
17415702010-12-14 14:37:35  — 2010-12-14 14:39:31 6° 7' 39" S  12° 19' 9" E  View metadata report for BODC series reference number 1741570
17415822010-12-14 15:03:22  — 2010-12-14 15:05:13 6° 7' 39" S  12° 19' 9" E  View metadata report for BODC series reference number 1741582
17415942010-12-14 15:54  — 2010-12-14 15:55:40 6° 7' 39" S  12° 19' 9" E  View metadata report for BODC series reference number 1741594
17416012010-12-14 16:15:16  — 2010-12-14 16:16:37 6° 7' 39" S  12° 19' 9" E  View metadata report for BODC series reference number 1741601
17414532010-12-13 13:08:39  — 2010-12-13 13:11:11 6° 6' 42" S  12° 20' 2" E  View metadata report for BODC series reference number 1741453
17414652010-12-13 14:01:17  — 2010-12-13 14:03:17 6° 7' 39" S  12° 19' 9" E  View metadata report for BODC series reference number 1741465
17414772010-12-13 14:35:58  — 2010-12-13 14:38:04 6° 7' 39" S  12° 19' 9" E  View metadata report for BODC series reference number 1741477